sensor_id;sensor_type;location;lat;lon;timestamp;P1;durP1;ratioP1;P2;durP2;ratioP2
63005;SDS011;53704;52.532;6.426;2022-11-15T00:02:17;31.52;;;19.02;;
63005;SDS011;53704;52.532;6.426;2022-11-15T00:04:43;30.20;;;19.65;;
63005;SDS011;53704;52.532;6.426;2022-11-15T00:07:08;34.75;;;19.90;;
63005;SDS011;53704;52.532;6.426;2022-11-15T00:09:33;33.17;;;20.20;;
63005;SDS011;53704;52.532;6.426;2022-11-15T00:11:59;38.75;;;21.17;;
63005;SDS011;53704;52.532;6.426;2022-11-15T00:14:24;34.85;;;21.27;;
63005;SDS011;53704;52.532;6.426;2022-11-15T00:16:49;32.78;;;19.60;;
63005;SDS011;53704;52.532;6.426;2022-11-15T00:19:15;32.22;;;20.27;;
63005;SDS011;53704;52.532;6.426;2022-11-15T00:21:40;33.90;;;19.55;;
63005;SDS011;53704;52.532;6.426;2022-11-15T00:24:06;25.80;;;17.27;;
63005;SDS011;53704;52.532;6.426;2022-11-15T00:26:31;32.92;;;19.55;;
63005;SDS011;53704;52.532;6.426;2022-11-15T00:28:56;31.73;;;20.02;;
63005;SDS011;53704;52.532;6.426;2022-11-15T00:31:22;30.70;;;19.65;;
63005;SDS011;53704;52.532;6.426;2022-11-15T00:33:47;32.65;;;19.95;;
63005;SDS011;53704;52.532;6.426;2022-11-15T00:36:12;42.05;;;20.70;;
63005;SDS011;53704;52.532;6.426;2022-11-15T00:38:38;30.85;;;18.52;;
63005;SDS011;53704;52.532;6.426;2022-11-15T00:41:05;26.50;;;18.80;;
63005;SDS011;53704;52.532;6.426;2022-11-15T00:43:32;27.10;;;20.17;;
63005;SDS011;53704;52.532;6.426;2022-11-15T00:45:58;29.88;;;19.45;;
63005;SDS011;53704;52.532;6.426;2022-11-15T00:48:24;35.15;;;19.52;;
63005;SDS011;53704;52.532;6.426;2022-11-15T00:50:49;32.30;;;19.77;;
63005;SDS011;53704;52.532;6.426;2022-11-15T00:53:15;31.40;;;19.67;;
63005;SDS011;53704;52.532;6.426;2022-11-15T00:55:41;36.25;;;19.10;;
63005;SDS011;53704;52.532;6.426;2022-11-15T00:58:07;35.67;;;20.13;;
63005;SDS011;53704;52.532;6.426;2022-11-15T01:00:32;30.92;;;19.05;;
63005;SDS011;53704;52.532;6.426;2022-11-15T01:02:58;32.85;;;18.60;;
63005;SDS011;53704;52.532;6.426;2022-11-15T01:05:25;33.47;;;20.10;;
63005;SDS011;53704;52.532;6.426;2022-11-15T01:07:54;35.90;;;20.90;;
63005;SDS011;53704;52.532;6.426;2022-11-15T01:10:20;34.58;;;18.73;;
63005;SDS011;53704;52.532;6.426;2022-11-15T01:12:47;37.65;;;19.63;;
63005;SDS011;53704;52.532;6.426;2022-11-15T01:15:13;33.25;;;18.80;;
63005;SDS011;53704;52.532;6.426;2022-11-15T01:17:38;35.00;;;20.48;;
63005;SDS011;53704;52.532;6.426;2022-11-15T01:20:04;34.00;;;17.92;;
63005;SDS011;53704;52.532;6.426;2022-11-15T01:22:29;37.05;;;19.63;;
63005;SDS011;53704;52.532;6.426;2022-11-15T01:24:55;34.03;;;18.90;;
63005;SDS011;53704;52.532;6.426;2022-11-15T01:27:20;37.35;;;19.60;;
63005;SDS011;53704;52.532;6.426;2022-11-15T01:29:46;35.92;;;18.70;;
63005;SDS011;53704;52.532;6.426;2022-11-15T01:32:11;43.63;;;20.63;;
63005;SDS011;53704;52.532;6.426;2022-11-15T01:34:36;34.42;;;18.67;;
63005;SDS011;53704;52.532;6.426;2022-11-15T01:37:02;36.78;;;19.10;;
63005;SDS011;53704;52.532;6.426;2022-11-15T01:39:27;42.33;;;20.13;;
63005;SDS011;53704;52.532;6.426;2022-11-15T01:41:53;39.20;;;21.02;;
63005;SDS011;53704;52.532;6.426;2022-11-15T01:44:34;41.30;;;21.58;;
63005;SDS011;53704;52.532;6.426;2022-11-15T01:47:09;41.13;;;20.25;;
63005;SDS011;53704;52.532;6.426;2022-11-15T01:49:39;49.08;;;20.40;;
63005;SDS011;53704;52.532;6.426;2022-11-15T01:52:12;50.70;;;21.50;;
63005;SDS011;53704;52.532;6.426;2022-11-15T01:54:41;44.92;;;21.95;;
63005;SDS011;53704;52.532;6.426;2022-11-15T01:57:08;36.45;;;20.27;;
63005;SDS011;53704;52.532;6.426;2022-11-15T01:59:37;48.40;;;23.25;;
63005;SDS011;53704;52.532;6.426;2022-11-15T02:02:05;40.97;;;21.55;;
63005;SDS011;53704;52.532;6.426;2022-11-15T02:04:32;41.72;;;21.33;;
63005;SDS011;53704;52.532;6.426;2022-11-15T02:07:01;39.20;;;21.70;;
63005;SDS011;53704;52.532;6.426;2022-11-15T02:09:28;51.85;;;24.30;;
63005;SDS011;53704;52.532;6.426;2022-11-15T02:11:54;48.70;;;23.10;;
63005;SDS011;53704;52.532;6.426;2022-11-15T02:14:21;51.95;;;24.90;;
63005;SDS011;53704;52.532;6.426;2022-11-15T02:28:10;46.05;;;23.35;;
63005;SDS011;53704;52.532;6.426;2022-11-15T02:30:53;47.97;;;23.55;;
63005;SDS011;53704;52.532;6.426;2022-11-15T02:37:07;49.83;;;24.33;;
63005;SDS011;53704;52.532;6.426;2022-11-15T02:42:43;53.47;;;24.02;;
63005;SDS011;53704;52.532;6.426;2022-11-15T02:45:37;50.40;;;24.73;;
63005;SDS011;53704;52.532;6.426;2022-11-15T02:48:07;51.15;;;24.50;;
63005;SDS011;53704;52.532;6.426;2022-11-15T02:50:34;51.15;;;25.80;;
63005;SDS011;53704;52.532;6.426;2022-11-15T02:53:00;52.58;;;24.52;;
63005;SDS011;53704;52.532;6.426;2022-11-15T03:04:25;49.35;;;25.33;;
63005;SDS011;53704;52.532;6.426;2022-11-15T03:06:55;60.20;;;28.95;;
63005;SDS011;53704;52.532;6.426;2022-11-15T03:09:32;51.60;;;29.13;;
63005;SDS011;53704;52.532;6.426;2022-11-15T03:14:53;59.08;;;27.35;;
63005;SDS011;53704;52.532;6.426;2022-11-15T03:17:22;52.70;;;27.30;;
63005;SDS011;53704;52.532;6.426;2022-11-15T03:19:52;53.53;;;27.27;;
63005;SDS011;53704;52.532;6.426;2022-11-15T03:22:21;62.28;;;27.80;;
63005;SDS011;53704;52.532;6.426;2022-11-15T03:24:57;55.80;;;28.52;;
63005;SDS011;53704;52.532;6.426;2022-11-15T03:27:28;65.00;;;31.33;;
63005;SDS011;53704;52.532;6.426;2022-11-15T03:30:05;59.92;;;28.92;;
63005;SDS011;53704;52.532;6.426;2022-11-15T03:32:37;63.25;;;30.25;;
63005;SDS011;53704;52.532;6.426;2022-11-15T03:35:14;53.35;;;27.25;;
63005;SDS011;53704;52.532;6.426;2022-11-15T03:37:55;56.50;;;28.23;;
63005;SDS011;53704;52.532;6.426;2022-11-15T03:40:42;58.33;;;27.38;;
63005;SDS011;53704;52.532;6.426;2022-11-15T03:46:06;59.35;;;29.08;;
63005;SDS011;53704;52.532;6.426;2022-11-15T03:48:39;59.53;;;28.92;;
63005;SDS011;53704;52.532;6.426;2022-11-15T03:51:08;53.53;;;26.95;;
63005;SDS011;53704;52.532;6.426;2022-11-15T03:53:35;68.32;;;30.08;;
63005;SDS011;53704;52.532;6.426;2022-11-15T03:56:00;64.60;;;30.25;;
63005;SDS011;53704;52.532;6.426;2022-11-15T03:58:26;56.05;;;30.00;;
63005;SDS011;53704;52.532;6.426;2022-11-15T04:00:51;66.22;;;31.75;;
63005;SDS011;53704;52.532;6.426;2022-11-15T04:03:16;71.25;;;30.30;;
63005;SDS011;53704;52.532;6.426;2022-11-15T04:05:42;73.72;;;32.15;;
63005;SDS011;53704;52.532;6.426;2022-11-15T04:08:07;74.00;;;32.10;;
63005;SDS011;53704;52.532;6.426;2022-11-15T04:10:32;70.15;;;31.55;;
63005;SDS011;53704;52.532;6.426;2022-11-15T04:12:58;83.85;;;34.25;;
63005;SDS011;53704;52.532;6.426;2022-11-15T04:15:23;54.88;;;28.85;;
63005;SDS011;53704;52.532;6.426;2022-11-15T04:17:50;73.47;;;30.33;;
63005;SDS011;53704;52.532;6.426;2022-11-15T04:20:24;52.75;;;28.85;;
63005;SDS011;53704;52.532;6.426;2022-11-15T04:23:11;61.78;;;31.38;;
63005;SDS011;53704;52.532;6.426;2022-11-15T04:26:04;65.72;;;31.73;;
63005;SDS011;53704;52.532;6.426;2022-11-15T04:28:30;63.28;;;29.70;;
63005;SDS011;53704;52.532;6.426;2022-11-15T04:30:56;62.42;;;28.95;;
63005;SDS011;53704;52.532;6.426;2022-11-15T04:33:22;56.63;;;29.42;;
63005;SDS011;53704;52.532;6.426;2022-11-15T04:35:49;61.00;;;28.35;;
63005;SDS011;53704;52.532;6.426;2022-11-15T04:38:33;54.78;;;29.55;;
63005;SDS011;53704;52.532;6.426;2022-11-15T04:40:59;63.22;;;31.80;;
63005;SDS011;53704;52.532;6.426;2022-11-15T04:43:25;62.38;;;29.00;;
63005;SDS011;53704;52.532;6.426;2022-11-15T04:45:50;56.45;;;29.75;;
63005;SDS011;53704;52.532;6.426;2022-11-15T04:48:16;63.20;;;30.60;;
63005;SDS011;53704;52.532;6.426;2022-11-15T04:50:41;61.60;;;30.83;;
63005;SDS011;53704;52.532;6.426;2022-11-15T04:53:06;46.67;;;25.98;;
63005;SDS011;53704;52.532;6.426;2022-11-15T04:55:32;48.15;;;27.00;;
63005;SDS011;53704;52.532;6.426;2022-11-15T04:58:01;47.03;;;24.70;;
63005;SDS011;53704;52.532;6.426;2022-11-15T05:00:27;51.78;;;28.67;;
63005;SDS011;53704;52.532;6.426;2022-11-15T05:02:54;66.85;;;29.02;;
63005;SDS011;53704;52.532;6.426;2022-11-15T05:05:38;52.03;;;28.43;;
63005;SDS011;53704;52.532;6.426;2022-11-15T05:08:04;55.67;;;29.27;;
63005;SDS011;53704;52.532;6.426;2022-11-15T05:10:29;58.40;;;28.98;;
63005;SDS011;53704;52.532;6.426;2022-11-15T05:12:55;58.10;;;28.27;;
63005;SDS011;53704;52.532;6.426;2022-11-15T05:15:20;66.78;;;30.02;;
63005;SDS011;53704;52.532;6.426;2022-11-15T05:17:45;52.90;;;26.35;;
63005;SDS011;53704;52.532;6.426;2022-11-15T05:20:11;58.70;;;31.50;;
63005;SDS011;53704;52.532;6.426;2022-11-15T05:22:37;70.57;;;30.20;;
63005;SDS011;53704;52.532;6.426;2022-11-15T05:25:03;74.45;;;29.58;;
63005;SDS011;53704;52.532;6.426;2022-11-15T05:27:29;66.97;;;30.65;;
63005;SDS011;53704;52.532;6.426;2022-11-15T05:29:54;62.35;;;31.65;;
63005;SDS011;53704;52.532;6.426;2022-11-15T05:32:20;69.07;;;30.45;;
63005;SDS011;53704;52.532;6.426;2022-11-15T05:34:46;59.55;;;28.73;;
63005;SDS011;53704;52.532;6.426;2022-11-15T05:37:11;60.35;;;29.70;;
63005;SDS011;53704;52.532;6.426;2022-11-15T05:39:38;66.05;;;30.67;;
63005;SDS011;53704;52.532;6.426;2022-11-15T05:42:08;58.30;;;28.50;;
63005;SDS011;53704;52.532;6.426;2022-11-15T05:44:36;56.33;;;27.40;;
63005;SDS011;53704;52.532;6.426;2022-11-15T05:47:04;58.92;;;28.65;;
63005;SDS011;53704;52.532;6.426;2022-11-15T05:49:34;67.97;;;29.85;;
63005;SDS011;53704;52.532;6.426;2022-11-15T05:52:02;60.92;;;25.73;;
63005;SDS011;53704;52.532;6.426;2022-11-15T05:54:32;60.28;;;30.27;;
63005;SDS011;53704;52.532;6.426;2022-11-15T05:56:58;56.45;;;27.42;;
63005;SDS011;53704;52.532;6.426;2022-11-15T05:59:25;64.70;;;28.50;;
63005;SDS011;53704;52.532;6.426;2022-11-15T06:01:50;59.22;;;28.55;;
63005;SDS011;53704;52.532;6.426;2022-11-15T06:04:16;49.70;;;24.80;;
63005;SDS011;53704;52.532;6.426;2022-11-15T06:06:41;57.33;;;28.15;;
63005;SDS011;53704;52.532;6.426;2022-11-15T06:09:07;47.58;;;24.13;;
63005;SDS011;53704;52.532;6.426;2022-11-15T06:11:32;58.10;;;25.90;;
63005;SDS011;53704;52.532;6.426;2022-11-15T06:13:57;55.58;;;26.50;;
63005;SDS011;53704;52.532;6.426;2022-11-15T06:16:23;55.67;;;26.55;;
63005;SDS011;53704;52.532;6.426;2022-11-15T06:18:48;54.40;;;24.48;;
63005;SDS011;53704;52.532;6.426;2022-11-15T06:21:14;56.92;;;26.10;;
63005;SDS011;53704;52.532;6.426;2022-11-15T06:23:39;47.58;;;25.58;;
63005;SDS011;53704;52.532;6.426;2022-11-15T06:26:04;42.78;;;23.25;;
63005;SDS011;53704;52.532;6.426;2022-11-15T06:28:30;47.00;;;24.70;;
63005;SDS011;53704;52.532;6.426;2022-11-15T06:31:02;55.97;;;26.30;;
63005;SDS011;53704;52.532;6.426;2022-11-15T06:33:28;57.05;;;24.85;;
63005;SDS011;53704;52.532;6.426;2022-11-15T06:35:54;49.22;;;25.45;;
63005;SDS011;53704;52.532;6.426;2022-11-15T06:38:20;42.90;;;24.77;;
63005;SDS011;53704;52.532;6.426;2022-11-15T06:40:45;50.17;;;24.33;;
63005;SDS011;53704;52.532;6.426;2022-11-15T06:43:10;40.30;;;24.08;;
63005;SDS011;53704;52.532;6.426;2022-11-15T06:45:36;39.65;;;24.67;;
63005;SDS011;53704;52.532;6.426;2022-11-15T06:48:01;43.78;;;23.25;;
63005;SDS011;53704;52.532;6.426;2022-11-15T06:50:27;56.13;;;28.05;;
63005;SDS011;53704;52.532;6.426;2022-11-15T06:52:52;48.45;;;25.73;;
63005;SDS011;53704;52.532;6.426;2022-11-15T06:55:19;44.85;;;24.98;;
63005;SDS011;53704;52.532;6.426;2022-11-15T06:57:48;42.53;;;25.38;;
63005;SDS011;53704;52.532;6.426;2022-11-15T07:00:15;38.25;;;22.73;;
63005;SDS011;53704;52.532;6.426;2022-11-15T07:02:42;44.47;;;24.95;;
63005;SDS011;53704;52.532;6.426;2022-11-15T07:05:07;40.88;;;24.67;;
63005;SDS011;53704;52.532;6.426;2022-11-15T07:07:33;59.95;;;25.60;;
63005;SDS011;53704;52.532;6.426;2022-11-15T07:09:58;46.53;;;24.83;;
63005;SDS011;53704;52.532;6.426;2022-11-15T07:12:23;47.97;;;24.00;;
63005;SDS011;53704;52.532;6.426;2022-11-15T07:14:49;44.72;;;25.33;;
63005;SDS011;53704;52.532;6.426;2022-11-15T07:17:14;43.58;;;23.48;;
63005;SDS011;53704;52.532;6.426;2022-11-15T07:19:39;55.88;;;24.65;;
63005;SDS011;53704;52.532;6.426;2022-11-15T07:22:05;39.28;;;23.38;;
63005;SDS011;53704;52.532;6.426;2022-11-15T07:24:30;54.42;;;23.88;;
63005;SDS011;53704;52.532;6.426;2022-11-15T07:26:56;41.25;;;23.48;;
63005;SDS011;53704;52.532;6.426;2022-11-15T07:29:21;48.50;;;26.52;;
63005;SDS011;53704;52.532;6.426;2022-11-15T07:31:46;49.28;;;23.50;;
63005;SDS011;53704;52.532;6.426;2022-11-15T07:34:12;35.97;;;21.90;;
63005;SDS011;53704;52.532;6.426;2022-11-15T07:36:37;54.03;;;24.20;;
63005;SDS011;53704;52.532;6.426;2022-11-15T07:39:03;45.85;;;25.83;;
63005;SDS011;53704;52.532;6.426;2022-11-15T07:41:28;47.28;;;25.08;;
63005;SDS011;53704;52.532;6.426;2022-11-15T07:43:54;48.30;;;24.83;;
63005;SDS011;53704;52.532;6.426;2022-11-15T07:46:20;44.15;;;24.83;;
63005;SDS011;53704;52.532;6.426;2022-11-15T07:48:45;53.85;;;24.88;;
63005;SDS011;53704;52.532;6.426;2022-11-15T07:51:14;52.88;;;24.30;;
63005;SDS011;53704;52.532;6.426;2022-11-15T07:53:44;43.58;;;24.25;;
63005;SDS011;53704;52.532;6.426;2022-11-15T07:56:09;52.22;;;26.85;;
63005;SDS011;53704;52.532;6.426;2022-11-15T07:58:35;46.60;;;24.10;;
63005;SDS011;53704;52.532;6.426;2022-11-15T08:01:04;47.20;;;25.58;;
63005;SDS011;53704;52.532;6.426;2022-11-15T08:03:31;53.33;;;24.05;;
63005;SDS011;53704;52.532;6.426;2022-11-15T08:05:57;44.38;;;23.35;;
63005;SDS011;53704;52.532;6.426;2022-11-15T08:08:23;51.85;;;24.85;;
63005;SDS011;53704;52.532;6.426;2022-11-15T08:10:48;51.22;;;25.30;;
63005;SDS011;53704;52.532;6.426;2022-11-15T08:13:13;46.45;;;25.27;;
63005;SDS011;53704;52.532;6.426;2022-11-15T08:15:39;51.28;;;27.70;;
63005;SDS011;53704;52.532;6.426;2022-11-15T08:18:06;50.75;;;27.00;;
63005;SDS011;53704;52.532;6.426;2022-11-15T08:20:34;59.95;;;25.65;;
63005;SDS011;53704;52.532;6.426;2022-11-15T08:23:00;52.08;;;25.55;;
63005;SDS011;53704;52.532;6.426;2022-11-15T08:25:27;49.63;;;25.95;;
63005;SDS011;53704;52.532;6.426;2022-11-15T08:27:55;46.15;;;24.75;;
63005;SDS011;53704;52.532;6.426;2022-11-15T08:30:22;45.47;;;24.42;;
63005;SDS011;53704;52.532;6.426;2022-11-15T08:32:49;48.70;;;23.70;;
63005;SDS011;53704;52.532;6.426;2022-11-15T08:35:15;41.88;;;25.40;;
63005;SDS011;53704;52.532;6.426;2022-11-15T08:37:41;52.88;;;23.70;;
63005;SDS011;53704;52.532;6.426;2022-11-15T08:40:07;42.28;;;22.70;;
63005;SDS011;53704;52.532;6.426;2022-11-15T08:42:33;40.53;;;23.95;;
63005;SDS011;53704;52.532;6.426;2022-11-15T08:44:58;45.33;;;22.60;;
63005;SDS011;53704;52.532;6.426;2022-11-15T08:47:23;37.25;;;23.55;;
63005;SDS011;53704;52.532;6.426;2022-11-15T08:49:49;47.25;;;24.13;;
63005;SDS011;53704;52.532;6.426;2022-11-15T08:52:15;43.83;;;21.42;;
63005;SDS011;53704;52.532;6.426;2022-11-15T08:54:40;38.40;;;21.63;;
63005;SDS011;53704;52.532;6.426;2022-11-15T08:57:06;38.28;;;22.77;;
63005;SDS011;53704;52.532;6.426;2022-11-15T08:59:32;38.17;;;19.75;;
63005;SDS011;53704;52.532;6.426;2022-11-15T09:01:57;30.17;;;21.05;;
63005;SDS011;53704;52.532;6.426;2022-11-15T09:04:23;33.92;;;19.95;;
63005;SDS011;53704;52.532;6.426;2022-11-15T09:06:48;37.95;;;21.42;;
63005;SDS011;53704;52.532;6.426;2022-11-15T09:09:14;28.98;;;19.88;;
63005;SDS011;53704;52.532;6.426;2022-11-15T09:11:39;22.52;;;18.98;;
63005;SDS011;53704;52.532;6.426;2022-11-15T09:14:05;29.88;;;18.83;;
63005;SDS011;53704;52.532;6.426;2022-11-15T09:16:31;28.20;;;17.67;;
63005;SDS011;53704;52.532;6.426;2022-11-15T09:18:56;28.90;;;19.60;;
63005;SDS011;53704;52.532;6.426;2022-11-15T09:21:22;24.50;;;17.88;;
63005;SDS011;53704;52.532;6.426;2022-11-15T09:23:50;28.65;;;18.35;;
63005;SDS011;53704;52.532;6.426;2022-11-15T09:26:16;19.13;;;15.65;;
63005;SDS011;53704;52.532;6.426;2022-11-15T09:28:41;26.42;;;15.48;;
63005;SDS011;53704;52.532;6.426;2022-11-15T09:31:07;23.55;;;16.05;;
63005;SDS011;53704;52.532;6.426;2022-11-15T09:33:33;23.58;;;14.68;;
63005;SDS011;53704;52.532;6.426;2022-11-15T09:36:02;19.60;;;14.07;;
63005;SDS011;53704;52.532;6.426;2022-11-15T09:38:30;17.88;;;13.35;;
63005;SDS011;53704;52.532;6.426;2022-11-15T09:41:08;18.52;;;12.90;;
63005;SDS011;53704;52.532;6.426;2022-11-15T09:46:51;18.85;;;12.13;;
63005;SDS011;53704;52.532;6.426;2022-11-15T09:49:30;15.52;;;11.35;;
63005;SDS011;53704;52.532;6.426;2022-11-15T09:52:04;17.20;;;11.23;;
63005;SDS011;53704;52.532;6.426;2022-11-15T09:54:36;13.10;;;10.77;;
63005;SDS011;53704;52.532;6.426;2022-11-15T09:57:12;14.82;;;10.55;;
63005;SDS011;53704;52.532;6.426;2022-11-15T10:05:23;13.70;;;8.63;;
63005;SDS011;53704;52.532;6.426;2022-11-15T10:12:56;12.10;;;7.82;;
63005;SDS011;53704;52.532;6.426;2022-11-15T10:15:22;13.95;;;8.27;;
63005;SDS011;53704;52.532;6.426;2022-11-15T10:20:58;14.90;;;9.25;;
63005;SDS011;53704;52.532;6.426;2022-11-15T10:23:25;18.17;;;9.35;;
63005;SDS011;53704;52.532;6.426;2022-11-15T10:25:54;14.43;;;8.88;;
63005;SDS011;53704;52.532;6.426;2022-11-15T10:28:29;23.35;;;8.18;;
63005;SDS011;53704;52.532;6.426;2022-11-15T10:30:56;9.18;;;7.78;;
63005;SDS011;53704;52.532;6.426;2022-11-15T10:46:42;12.02;;;5.32;;
63005;SDS011;53704;52.532;6.426;2022-11-15T10:49:18;12.52;;;4.75;;
63005;SDS011;53704;52.532;6.426;2022-11-15T10:51:53;7.85;;;4.32;;
63005;SDS011;53704;52.532;6.426;2022-11-15T10:56:53;7.60;;;3.65;;
63005;SDS011;53704;52.532;6.426;2022-11-15T10:59:24;4.13;;;3.72;;
63005;SDS011;53704;52.532;6.426;2022-11-15T11:01:54;4.97;;;3.47;;
63005;SDS011;53704;52.532;6.426;2022-11-15T11:04:20;10.20;;;3.33;;
63005;SDS011;53704;52.532;6.426;2022-11-15T11:06:46;3.67;;;3.25;;
63005;SDS011;53704;52.532;6.426;2022-11-15T11:09:37;6.38;;;3.88;;
63005;SDS011;53704;52.532;6.426;2022-11-15T11:12:04;6.30;;;2.95;;
63005;SDS011;53704;52.532;6.426;2022-11-15T11:14:35;5.05;;;3.13;;
63005;SDS011;53704;52.532;6.426;2022-11-15T11:17:03;8.82;;;3.33;;
63005;SDS011;53704;52.532;6.426;2022-11-15T11:25:17;6.25;;;3.10;;
63005;SDS011;53704;52.532;6.426;2022-11-15T11:33:38;3.72;;;3.08;;
63005;SDS011;53704;52.532;6.426;2022-11-15T11:41:27;3.33;;;2.33;;
63005;SDS011;53704;52.532;6.426;2022-11-15T11:44:18;3.80;;;2.40;;
63005;SDS011;53704;52.532;6.426;2022-11-15T11:47:14;6.50;;;2.45;;
63005;SDS011;53704;52.532;6.426;2022-11-15T11:49:50;6.47;;;2.75;;
63005;SDS011;53704;52.532;6.426;2022-11-15T11:52:21;2.75;;;2.55;;
63005;SDS011;53704;52.532;6.426;2022-11-15T11:57:43;6.50;;;2.88;;
63005;SDS011;53704;52.532;6.426;2022-11-15T12:00:20;5.68;;;2.47;;
63005;SDS011;53704;52.532;6.426;2022-11-15T12:05:31;7.45;;;2.42;;
63005;SDS011;53704;52.532;6.426;2022-11-15T12:08:21;4.97;;;2.58;;
63005;SDS011;53704;52.532;6.426;2022-11-15T12:11:09;3.75;;;2.05;;
63005;SDS011;53704;52.532;6.426;2022-11-15T12:13:40;6.85;;;2.30;;
63005;SDS011;53704;52.532;6.426;2022-11-15T12:18:47;2.40;;;2.20;;
63005;SDS011;53704;52.532;6.426;2022-11-15T12:21:17;8.95;;;2.38;;
63005;SDS011;53704;52.532;6.426;2022-11-15T12:23:52;3.45;;;2.15;;
63005;SDS011;53704;52.532;6.426;2022-11-15T12:26:24;4.55;;;1.88;;
63005;SDS011;53704;52.532;6.426;2022-11-15T12:28:59;3.15;;;2.00;;
63005;SDS011;53704;52.532;6.426;2022-11-15T12:31:41;3.25;;;1.88;;
63005;SDS011;53704;52.532;6.426;2022-11-15T12:34:28;4.93;;;1.45;;
63005;SDS011;53704;52.532;6.426;2022-11-15T12:37:01;2.30;;;2.00;;
63005;SDS011;53704;52.532;6.426;2022-11-15T12:42:58;7.75;;;2.58;;
63005;SDS011;53704;52.532;6.426;2022-11-15T12:45:28;9.93;;;3.28;;
63005;SDS011;53704;52.532;6.426;2022-11-15T12:56:08;4.18;;;1.70;;
63005;SDS011;53704;52.532;6.426;2022-11-15T13:06:49;3.65;;;1.30;;
63005;SDS011;53704;52.532;6.426;2022-11-15T13:11:59;1.75;;;1.08;;
63005;SDS011;53704;52.532;6.426;2022-11-15T13:19:43;1.60;;;1.10;;
63005;SDS011;53704;52.532;6.426;2022-11-15T13:22:29;10.00;;;1.65;;
63005;SDS011;53704;52.532;6.426;2022-11-15T13:25:16;8.32;;;1.20;;
63005;SDS011;53704;52.532;6.426;2022-11-15T13:27:47;1.77;;;1.30;;
63005;SDS011;53704;52.532;6.426;2022-11-15T13:30:16;4.60;;;1.30;;
63005;SDS011;53704;52.532;6.426;2022-11-15T13:32:45;2.17;;;1.23;;
63005;SDS011;53704;52.532;6.426;2022-11-15T13:35:18;2.20;;;1.15;;
63005;SDS011;53704;52.532;6.426;2022-11-15T13:38:04;2.42;;;1.15;;
63005;SDS011;53704;52.532;6.426;2022-11-15T13:40:36;2.20;;;1.27;;
63005;SDS011;53704;52.532;6.426;2022-11-15T13:46:03;1.73;;;0.93;;
63005;SDS011;53704;52.532;6.426;2022-11-15T13:48:31;1.88;;;1.10;;
63005;SDS011;53704;52.532;6.426;2022-11-15T13:50:58;1.45;;;1.00;;
63005;SDS011;53704;52.532;6.426;2022-11-15T13:53:26;2.78;;;1.42;;
63005;SDS011;53704;52.532;6.426;2022-11-15T13:55:52;1.30;;;0.93;;
63005;SDS011;53704;52.532;6.426;2022-11-15T13:58:20;2.08;;;1.23;;
63005;SDS011;53704;52.532;6.426;2022-11-15T14:00:46;4.88;;;1.13;;
63005;SDS011;53704;52.532;6.426;2022-11-15T14:06:02;2.03;;;1.58;;
63005;SDS011;53704;52.532;6.426;2022-11-15T14:08:28;3.60;;;1.58;;
63005;SDS011;53704;52.532;6.426;2022-11-15T14:13:58;7.75;;;2.20;;
63005;SDS011;53704;52.532;6.426;2022-11-15T14:19:09;2.70;;;1.83;;
63005;SDS011;53704;52.532;6.426;2022-11-15T14:24:33;3.28;;;2.00;;
63005;SDS011;53704;52.532;6.426;2022-11-15T14:27:15;10.88;;;2.22;;
63005;SDS011;53704;52.532;6.426;2022-11-15T14:29:45;2.33;;;2.13;;
63005;SDS011;53704;52.532;6.426;2022-11-15T14:32:15;3.28;;;1.77;;
63005;SDS011;53704;52.532;6.426;2022-11-15T14:34:47;3.20;;;2.78;;
63005;SDS011;53704;52.532;6.426;2022-11-15T14:37:24;2.85;;;2.65;;
63005;SDS011;53704;52.532;6.426;2022-11-15T14:39:57;11.23;;;3.47;;
63005;SDS011;53704;52.532;6.426;2022-11-15T14:42:23;3.72;;;2.70;;
63005;SDS011;53704;52.532;6.426;2022-11-15T14:44:49;4.93;;;3.05;;
63005;SDS011;53704;52.532;6.426;2022-11-15T14:47:15;16.45;;;3.28;;
63005;SDS011;53704;52.532;6.426;2022-11-15T14:49:41;6.68;;;3.10;;
63005;SDS011;53704;52.532;6.426;2022-11-15T14:52:15;13.98;;;3.63;;
63005;SDS011;53704;52.532;6.426;2022-11-15T14:54:52;6.85;;;3.20;;
63005;SDS011;53704;52.532;6.426;2022-11-15T14:57:18;6.05;;;2.88;;
63005;SDS011;53704;52.532;6.426;2022-11-15T14:59:43;3.17;;;2.78;;
63005;SDS011;53704;52.532;6.426;2022-11-15T15:02:30;8.05;;;3.30;;
63005;SDS011;53704;52.532;6.426;2022-11-15T15:04:55;2.60;;;2.40;;
63005;SDS011;53704;52.532;6.426;2022-11-15T15:07:20;3.13;;;2.90;;
63005;SDS011;53704;52.532;6.426;2022-11-15T15:09:47;5.95;;;2.50;;
63005;SDS011;53704;52.532;6.426;2022-11-15T15:12:14;3.15;;;2.17;;
63005;SDS011;53704;52.532;6.426;2022-11-15T15:14:45;8.63;;;2.90;;
63005;SDS011;53704;52.532;6.426;2022-11-15T15:17:11;9.75;;;2.85;;
63005;SDS011;53704;52.532;6.426;2022-11-15T15:19:37;6.35;;;2.40;;
63005;SDS011;53704;52.532;6.426;2022-11-15T15:22:02;4.05;;;3.45;;
63005;SDS011;53704;52.532;6.426;2022-11-15T15:24:28;15.50;;;6.45;;
63005;SDS011;53704;52.532;6.426;2022-11-15T15:26:53;7.70;;;6.60;;
63005;SDS011;53704;52.532;6.426;2022-11-15T15:29:21;8.93;;;4.95;;
63005;SDS011;53704;52.532;6.426;2022-11-15T15:31:47;3.80;;;3.40;;
63005;SDS011;53704;52.532;6.426;2022-11-15T15:34:13;3.15;;;2.55;;
63005;SDS011;53704;52.532;6.426;2022-11-15T15:36:38;6.63;;;2.85;;
63005;SDS011;53704;52.532;6.426;2022-11-15T15:39:04;9.95;;;2.45;;
63005;SDS011;53704;52.532;6.426;2022-11-15T15:41:29;8.15;;;2.17;;
63005;SDS011;53704;52.532;6.426;2022-11-15T15:43:54;3.33;;;2.10;;
63005;SDS011;53704;52.532;6.426;2022-11-15T15:46:24;5.78;;;2.17;;
63005;SDS011;53704;52.532;6.426;2022-11-15T15:48:49;3.78;;;1.95;;
63005;SDS011;53704;52.532;6.426;2022-11-15T15:51:14;8.45;;;2.58;;
63005;SDS011;53704;52.532;6.426;2022-11-15T15:53:40;5.07;;;2.05;;
63005;SDS011;53704;52.532;6.426;2022-11-15T15:56:05;2.25;;;2.05;;
63005;SDS011;53704;52.532;6.426;2022-11-15T15:58:33;7.45;;;2.50;;
63005;SDS011;53704;52.532;6.426;2022-11-15T16:00:58;3.15;;;2.17;;
63005;SDS011;53704;52.532;6.426;2022-11-15T16:03:24;4.13;;;2.10;;
63005;SDS011;53704;52.532;6.426;2022-11-15T16:12:42;4.43;;;1.98;;
63005;SDS011;53704;52.532;6.426;2022-11-15T16:18:29;5.20;;;2.22;;
63005;SDS011;53704;52.532;6.426;2022-11-15T16:20:55;7.28;;;2.17;;
63005;SDS011;53704;52.532;6.426;2022-11-15T16:23:21;4.03;;;1.65;;
63005;SDS011;53704;52.532;6.426;2022-11-15T16:25:50;7.95;;;2.17;;
63005;SDS011;53704;52.532;6.426;2022-11-15T16:28:25;10.15;;;2.15;;
63005;SDS011;53704;52.532;6.426;2022-11-15T16:33:32;5.60;;;2.30;;
63005;SDS011;53704;52.532;6.426;2022-11-15T16:35:58;5.57;;;1.88;;
63005;SDS011;53704;52.532;6.426;2022-11-15T16:38:24;2.35;;;1.85;;
63005;SDS011;53704;52.532;6.426;2022-11-15T16:40:49;9.10;;;2.10;;
63005;SDS011;53704;52.532;6.426;2022-11-15T16:43:14;4.45;;;2.05;;
63005;SDS011;53704;52.532;6.426;2022-11-15T16:45:40;5.57;;;1.70;;
63005;SDS011;53704;52.532;6.426;2022-11-15T16:48:05;5.63;;;2.05;;
63005;SDS011;53704;52.532;6.426;2022-11-15T16:50:32;2.65;;;1.90;;
63005;SDS011;53704;52.532;6.426;2022-11-15T16:53:04;3.47;;;1.90;;
63005;SDS011;53704;52.532;6.426;2022-11-15T16:55:30;3.78;;;2.17;;
63005;SDS011;53704;52.532;6.426;2022-11-15T16:57:55;4.57;;;2.30;;
63005;SDS011;53704;52.532;6.426;2022-11-15T17:00:25;5.30;;;2.17;;
63005;SDS011;53704;52.532;6.426;2022-11-15T17:02:51;6.65;;;2.20;;
63005;SDS011;53704;52.532;6.426;2022-11-15T17:05:18;5.57;;;1.98;;